Página principal
METAR-TAF:

METAR-TAF

Aeroportos :

Aeroporto Nova Lisboa

Huambo, Angola

latitude: 12-48-32S, longitude: 015-45-38E, altura: 1710 m

Observação actual do tempo

O boletim foi feito há 1 hora e 24 minutos, às 07:00 UTC
Vento 5 kt de sudoeste
Temperatura 20°C
Humidade 88%
Pressão 1021 hPa
Visibilidade 10 km ou mais
sem nuvens abaixo de 1500 metros e sem cumulonimbus

METAR: FNHU 040700Z 23005KT CAVOK 20/18 Q1021

Hora: 09:24 (08:24 UTC)

Previsão

O boletim foi feito há 9 horas e 24 minutos, às 23:00 UTC
Previsão válida de 04 às 00 UTC a 04 às 12 UTC
Vento 3 kt com direcção variável
Visibilidade 10 km ou mais
Nuvens fragmentadasa uma altura de 2500 ft

TAF: FNHU 032300Z 0400/0412 VRB03KT 9999 BKN025

Observações e previsões do tempo de mais de 4000 aeroportos (mensagens METAR e TAF).

As estações disponíveis são os pontos amarelos e vermelhos sobre o mapa.

Mova o rato sobre o mapa para ver o nome da estação.

Depois clique no ponto para visualizar as observações e previsões meteorológicas.

Para alterar o mapa : clique nos botões verdes com uma cruz preta para aumentar o zoom; no botão verde com uma pitada de zoom; ou nas setas verdes para mapas adjacentes.


METAR-TAF: